Time;durP1;ratioP1;P1;durP2;ratioP2;P2;SDS_P1;SDS_P2;PMS_P1;PMS_P2;Temp;Humidity;BMP_temperature;BMP_pressure;BME280_temperature;BME280_humidity;BME280_pressure;Samples;Min_cycle;Max_cycle;Signal;HPM_P1;HPM_P2
2021/06/26 00:00:11;;;;;;;2.80;2.60;;;34.30;54.40;;;;;;5065286;28;20508;-24
2021/06/26 00:02:42;;;;;;;3.40;3.20;;;34.30;55.00;;;;;;5065648;28;20453;-26
2021/06/26 00:05:14;;;;;;;2.80;2.60;;;34.30;55.60;;;;;;5065424;28;20447;-24
2021/06/26 00:07:45;;;;;;;2.77;2.63;;;34.30;56.10;;;;;;5065657;28;20451;-25
2021/06/26 00:10:18;;;;;;;2.60;2.40;;;34.40;54.70;;;;;;5063510;28;20485;-28
2021/06/26 00:12:49;;;;;;;2.63;2.50;;;34.40;55.10;;;;;;5066017;28;20492;-26
2021/06/26 00:15:20;;;;;;;2.90;2.80;;;34.40;53.90;;;;;;5065125;28;20455;-25
2021/06/26 00:17:51;;;;;;;5.93;2.47;;;34.30;54.30;;;;;;5065374;28;20455;-25
2021/06/26 00:20:22;;;;;;;2.80;2.70;;;34.30;53.10;;;;;;5064959;28;20819;-24
2021/06/26 00:22:54;;;;;;;2.80;2.60;;;34.30;54.20;;;;;;5065601;28;20458;-31
2021/06/26 00:25:28;;;;;;;2.43;2.33;;;34.30;55.10;;;;;;5042812;28;20462;-27
2021/06/26 00:28:04;;;;;;;2.63;2.53;;;34.20;54.20;;;;;;5045291;28;20467;-26
2021/06/26 00:30:38;;;;;;;2.30;2.20;;;34.20;53.30;;;;;;5044880;28;20507;-26
2021/06/26 00:33:09;;;;;;;2.80;2.60;;;34.00;54.60;;;;;;5044866;28;20460;-25
2021/06/26 00:35:40;;;;;;;5.80;3.10;;;34.00;55.60;;;;;;5059600;28;20499;-24
2021/06/26 00:38:11;;;;;;;2.80;2.57;;;34.00;54.60;;;;;;5063986;28;20459;-25
2021/06/26 00:40:44;;;;;;;3.03;2.83;;;33.90;56.30;;;;;;5063274;28;20439;-23
2021/06/26 00:43:17;;;;;;;2.50;2.40;;;33.90;54.80;;;;;;5063639;28;20933;-24
2021/06/26 00:45:48;;;;;;;3.67;2.57;;;33.80;54.60;;;;;;5062484;28;20489;-26
2021/06/26 00:48:20;;;;;;;2.90;2.70;;;33.70;54.70;;;;;;5063826;28;20457;-24
2021/06/26 00:50:51;;;;;;;3.07;2.87;;;33.70;55.90;;;;;;5064041;28;20525;-26
2021/06/26 00:53:22;;;;;;;2.90;2.60;;;33.70;57.20;;;;;;5063827;28;20457;-26
2021/06/26 00:55:55;;;;;;;3.77;2.83;;;33.70;56.20;;;;;;5062217;28;20485;-27
2021/06/26 00:58:27;;;;;;;3.10;2.90;;;33.60;56.80;;;;;;5063497;28;20440;-26
2021/06/26 01:01:00;;;;;;;3.03;2.50;;;33.60;57.10;;;;;;5064229;28;20524;-24
2021/06/26 01:03:36;;;;;;;2.97;2.87;;;33.60;57.00;;;;;;5063250;28;20462;-25
2021/06/26 01:06:07;;;;;;;82.40;76.57;;;33.50;56.50;;;;;;5058255;28;20473;-26
2021/06/26 01:08:38;;;;;;;231.67;215.17;;;33.40;56.90;;;;;;5057395;28;20470;-28
2021/06/26 01:11:12;;;;;;;285.73;267.73;;;33.30;56.80;;;;;;5061896;28;20510;-23
2021/06/26 01:13:43;;;;;;;385.47;356.03;;;33.20;57.90;;;;;;5062777;28;20466;-24
2021/06/26 01:16:15;;;;;;;20.20;19.10;;;33.30;57.80;;;;;;5063093;28;20446;-25
2021/06/26 01:18:47;;;;;;;13.63;12.40;;;33.20;57.70;;;;;;5064731;28;20456;-27
2021/06/26 01:21:18;;;;;;;22.23;20.73;;;33.10;57.70;;;;;;5061902;28;20582;-25
2021/06/26 01:23:53;;;;;;;35.70;33.40;;;33.10;57.00;;;;;;5064129;28;20455;-26
2021/06/26 01:26:28;;;;;;;13.13;12.43;;;33.20;57.70;;;;;;5062392;28;20572;-25
2021/06/26 01:29:00;;;;;;;6.50;6.00;;;33.20;57.10;;;;;;5062236;28;20458;-26
2021/06/26 01:31:31;;;;;;;5.80;3.47;;;33.10;57.60;;;;;;5063901;28;20547;-26
2021/06/26 01:34:02;;;;;;;3.73;3.43;;;33.00;57.20;;;;;;5064330;28;20450;-29
2021/06/26 01:36:33;;;;;;;3.00;2.80;;;33.00;56.60;;;;;;5063335;28;20446;-24
2021/06/26 01:39:06;;;;;;;3.00;2.80;;;32.90;57.30;;;;;;5060882;28;20451;-24
2021/06/26 01:41:37;;;;;;;2.37;2.27;;;32.90;57.20;;;;;;5058655;28;20451;-28
2021/06/26 01:44:08;;;;;;;3.00;2.80;;;33.00;57.60;;;;;;5062388;28;20479;-24
2021/06/26 01:46:40;;;;;;;74.90;69.53;;;33.00;58.00;;;;;;5072821;28;20447;-24
2021/06/26 01:49:12;;;;;;;26.07;24.40;;;32.90;57.10;;;;;;5065542;28;20481;-29
2021/06/26 01:51:44;;;;;;;28.87;26.77;;;32.90;57.10;;;;;;5062470;28;20460;-28
2021/06/26 01:54:16;;;;;;;85.90;79.20;;;32.90;57.20;;;;;;5062207;28;20467;-24
2021/06/26 01:56:47;;;;;;;16.33;15.07;;;32.80;57.60;;;;;;5062799;28;20450;-27
2021/06/26 01:59:18;;;;;;;60.63;56.40;;;32.80;57.80;;;;;;5062438;28;20939;-26
2021/06/26 02:01:49;;;;;;;18.63;17.23;;;32.80;57.50;;;;;;5051924;28;20487;-28
2021/06/26 02:04:20;;;;;;;35.40;32.73;;;32.70;57.30;;;;;;5062446;28;20451;-23
2021/06/26 02:06:51;;;;;;;46.27;42.50;;;32.70;57.50;;;;;;5063102;28;20455;-26
2021/06/26 02:09:24;;;;;;;19.73;18.03;;;32.70;58.50;;;;;;5060867;28;20503;-23
2021/06/26 02:11:55;;;;;;;13.30;12.40;;;32.60;57.30;;;;;;5060148;28;20525;-24
2021/06/26 02:14:26;;;;;;;5.43;5.03;;;32.60;57.60;;;;;;5061665;28;20459;-25
2021/06/26 02:16:57;;;;;;;13.30;12.37;;;32.50;57.80;;;;;;5057772;28;20462;-25
2021/06/26 02:19:28;;;;;;;9.70;9.10;;;32.40;58.70;;;;;;5061149;28;20446;-25
2021/06/26 02:21:59;;;;;;;14.33;13.47;;;32.20;59.10;;;;;;5062992;28;20454;-24
2021/06/26 02:24:32;;;;;;;12.40;11.70;;;32.00;60.00;;;;;;5061384;28;20485;-24
2021/06/26 02:27:03;;;;;;;8.67;8.20;;;32.00;59.20;;;;;;5063148;28;20523;-31
2021/06/26 02:29:34;;;;;;;6.10;5.67;;;31.90;59.90;;;;;;5062137;28;20450;-27
2021/06/26 02:32:05;;;;;;;4.10;3.80;;;31.90;60.60;;;;;;5062825;28;20482;-25
2021/06/26 02:34:36;;;;;;;3.53;3.33;;;31.90;59.30;;;;;;5063099;28;20449;-27
2021/06/26 02:37:07;;;;;;;3.77;3.50;;;31.90;60.00;;;;;;5063208;28;20469;-26
2021/06/26 02:39:40;;;;;;;4.10;3.80;;;31.80;61.20;;;;;;5060980;28;20452;-24
2021/06/26 02:42:11;;;;;;;3.83;3.60;;;31.60;62.20;;;;;;5058415;28;20553;-24
2021/06/26 02:44:42;;;;;;;4.47;3.40;;;31.50;62.00;;;;;;5062632;28;20512;-25
2021/06/26 02:47:13;;;;;;;3.03;2.90;;;31.50;61.70;;;;;;5048764;28;20453;-27
2021/06/26 02:49:45;;;;;;;3.30;3.00;;;31.50;62.50;;;;;;5062303;28;20498;-28
2021/06/26 02:52:16;;;;;;;3.30;3.00;;;31.40;62.30;;;;;;5063001;28;20548;-26
2021/06/26 02:54:49;;;;;;;3.77;2.87;;;31.50;61.70;;;;;;5060239;28;20452;-27
2021/06/26 02:57:20;;;;;;;2.80;2.60;;;31.50;61.70;;;;;;5063202;28;20450;-30
2021/06/26 02:59:51;;;;;;;2.93;2.67;;;31.50;61.10;;;;;;5062394;28;20461;-27
2021/06/26 03:02:22;;;;;;;3.20;2.90;;;31.40;61.10;;;;;;5062802;28;20447;-27
2021/06/26 03:04:53;;;;;;;6.20;5.80;;;31.30;61.80;;;;;;5062526;28;20493;-25
2021/06/26 03:07:24;;;;;;;3.40;3.20;;;31.20;62.00;;;;;;5062814;28;20447;-24
2021/06/26 03:09:56;;;;;;;4.07;3.77;;;31.10;62.60;;;;;;5060884;28;20481;-23
2021/06/26 03:12:27;;;;;;;3.40;3.20;;;30.90;62.70;;;;;;5062351;28;20492;-25
2021/06/26 03:14:58;;;;;;;4.03;3.73;;;30.90;62.60;;;;;;5062135;28;20486;-28
2021/06/26 03:17:29;;;;;;;3.03;2.80;;;30.80;62.80;;;;;;5061330;28;20504;-24
2021/06/26 03:20:00;;;;;;;3.30;3.10;;;30.70;62.80;;;;;;5060191;28;20504;-27
2021/06/26 03:22:31;;;;;;;2.87;2.67;;;30.60;64.10;;;;;;5064104;28;20441;-22
2021/06/26 03:25:04;;;;;;;3.10;2.90;;;30.60;64.00;;;;;;5065258;28;20568;-27
2021/06/26 03:27:35;;;;;;;2.87;2.70;;;30.50;64.10;;;;;;5066593;28;20451;-22
2021/06/26 03:30:07;;;;;;;3.53;3.23;;;30.50;65.20;;;;;;5064932;28;20458;-24
2021/06/26 03:32:38;;;;;;;3.13;2.93;;;30.40;63.70;;;;;;5066408;28;20502;-26
2021/06/26 03:35:10;;;;;;;5.70;5.20;;;30.30;64.80;;;;;;5066243;28;20586;-24
2021/06/26 03:37:41;;;;;;;3.60;3.30;;;30.20;65.70;;;;;;5066373;28;20811;-23
2021/06/26 03:40:15;;;;;;;4.03;3.77;;;30.00;65.70;;;;;;5055208;28;20450;-24
2021/06/26 03:42:46;;;;;;;5.10;3.40;;;29.90;66.90;;;;;;5065182;28;20526;-25
2021/06/26 03:45:17;;;;;;;4.10;3.80;;;29.80;67.00;;;;;;5065633;28;20445;-26
2021/06/26 03:47:48;;;;;;;3.90;3.70;;;29.70;67.30;;;;;;5066231;28;20472;-26
2021/06/26 03:50:40;;;;;;;4.70;4.23;;;29.50;68.70;;;;;;5060489;28;20485;-31
2021/06/26 03:53:11;;;;;;;4.43;4.10;;;29.40;68.50;;;;;;5063745;28;20448;-24
2021/06/26 03:55:51;;;;;;;3.70;3.40;;;29.30;70.20;;;;;;5064662;28;20865;-24
2021/06/26 03:58:23;;;;;;;3.80;3.50;;;29.20;69.80;;;;;;5066126;28;20454;-29
2021/06/26 04:00:56;;;;;;;3.87;3.63;;;29.10;70.50;;;;;;5065715;28;20455;-25
2021/06/26 04:03:27;;;;;;;3.53;3.33;;;29.00;70.70;;;;;;5065575;28;20479;-24
2021/06/26 04:05:58;;;;;;;3.63;3.43;;;29.00;70.70;;;;;;5065349;28;20440;-26
2021/06/26 04:08:29;;;;;;;3.47;3.27;;;29.00;70.70;;;;;;5066144;28;20440;-27
2021/06/26 04:11:01;;;;;;;3.53;3.23;;;29.10;71.40;;;;;;5063216;28;20611;-24
2021/06/26 04:13:32;;;;;;;3.80;3.50;;;29.10;70.60;;;;;;5064845;28;21407;-24
2021/06/26 04:16:04;;;;;;;3.93;3.53;;;29.10;71.20;;;;;;5064892;28;20458;-26
2021/06/26 04:18:35;;;;;;;4.43;4.03;;;29.00;72.00;;;;;;5064921;28;20440;-29
2021/06/26 04:21:06;;;;;;;4.27;3.97;;;28.90;72.20;;;;;;5062640;28;20451;-30
2021/06/26 04:23:37;;;;;;;4.77;4.47;;;28.70;73.50;;;;;;5064907;28;20447;-26
2021/06/26 04:26:10;;;;;;;4.93;4.63;;;28.60;74.60;;;;;;5061532;28;20787;-26
2021/06/26 04:28:41;;;;;;;5.03;4.50;;;28.50;74.80;;;;;;5064547;28;20448;-24
2021/06/26 04:31:12;;;;;;;4.43;4.13;;;28.40;75.70;;;;;;5064365;28;20484;-22
2021/06/26 04:33:43;;;;;;;4.27;3.97;;;28.30;76.90;;;;;;5064042;28;20466;-25
2021/06/26 04:36:14;;;;;;;3.50;3.30;;;28.10;75.90;;;;;;5065127;28;20459;-24
2021/06/26 04:38:46;;;;;;;4.30;4.00;;;28.00;77.00;;;;;;5065144;28;20452;-24
2021/06/26 04:41:18;;;;;;;5.00;4.70;;;28.00;77.60;;;;;;5063378;28;20449;-23
2021/06/26 04:43:49;;;;;;;5.40;5.10;;;27.80;78.80;;;;;;5064043;28;20451;-27
2021/06/26 04:46:20;;;;;;;3.50;3.30;;;27.70;79.50;;;;;;5064619;28;20532;-23
2021/06/26 04:48:53;;;;;;;4.03;3.70;;;27.70;79.60;;;;;;5064693;28;20475;-23
2021/06/26 04:51:23;;;;;;;4.40;4.00;;;27.80;79.10;;;;;;5065073;28;20498;-22
2021/06/26 04:53:54;;;;;;;5.80;4.00;;;27.70;80.10;;;;;;5061894;28;20491;-24
2021/06/26 04:56:28;;;;;;;4.50;4.10;;;27.70;80.00;;;;;;5063669;28;20488;-23
2021/06/26 04:58:59;;;;;;;4.67;4.37;;;27.70;81.30;;;;;;5064373;28;20467;-23
2021/06/26 05:01:30;;;;;;;4.40;4.10;;;27.70;81.90;;;;;;5064171;28;20457;-26
2021/06/26 05:04:02;;;;;;;5.00;4.70;;;27.50;82.30;;;;;;5064294;28;20533;-24
2021/06/26 05:06:33;;;;;;;5.00;4.60;;;27.40;84.60;;;;;;5065071;28;20430;-23
2021/06/26 05:09:04;;;;;;;5.37;4.97;;;27.20;85.00;;;;;;5063299;28;20516;-29
2021/06/26 05:11:36;;;;;;;5.17;4.87;;;27.10;87.40;;;;;;5064010;28;20774;-24
2021/06/26 05:14:07;;;;;;;4.90;4.60;;;27.00;86.90;;;;;;5063553;28;20458;-23
2021/06/26 05:16:41;;;;;;;5.40;5.00;;;26.90;87.70;;;;;;5064153;28;20452;-27
2021/06/26 05:19:13;;;;;;;4.97;4.60;;;26.90;87.50;;;;;;5063948;28;20444;-24
2021/06/26 05:21:44;;;;;;;5.53;5.10;;;26.80;88.00;;;;;;5064317;28;20533;-25
2021/06/26 05:24:15;;;;;;;5.23;4.83;;;26.80;90.10;;;;;;5062564;28;20454;-22
2021/06/26 05:26:48;;;;;;;4.90;4.57;;;26.70;90.80;;;;;;5063950;28;20459;-23
2021/06/26 05:29:19;;;;;;;5.53;5.07;;;26.70;91.60;;;;;;5063616;28;20469;-24
2021/06/26 05:31:50;;;;;;;4.47;4.20;;;26.60;92.20;;;;;;5063760;28;20487;-25
2021/06/26 05:34:21;;;;;;;4.97;4.67;;;26.50;92.60;;;;;;5063363;28;20449;-23
2021/06/26 05:36:52;;;;;;;4.70;4.40;;;26.40;92.90;;;;;;5057024;28;20450;-23
2021/06/26 05:39:23;;;;;;;5.00;4.67;;;26.40;92.60;;;;;;5062831;28;20448;-24
2021/06/26 05:41:55;;;;;;;4.90;4.60;;;26.50;92.70;;;;;;5063450;28;20460;-23
2021/06/26 05:44:26;;;;;;;6.63;5.00;;;26.50;92.70;;;;;;5062680;28;21001;-26
2021/06/26 05:46:57;;;;;;;5.83;5.37;;;26.60;92.90;;;;;;5062749;28;20444;-26
2021/06/26 05:49:29;;;;;;;4.97;4.63;;;26.60;93.40;;;;;;5063053;28;20472;-23
2021/06/26 05:52:00;;;;;;;4.73;4.43;;;26.60;93.40;;;;;;5063644;28;20511;-23
2021/06/26 05:54:31;;;;;;;4.80;4.50;;;26.50;94.20;;;;;;5061370;28;20484;-23
2021/06/26 05:57:04;;;;;;;5.27;4.90;;;26.30;94.90;;;;;;5059153;28;20452;-24
2021/06/26 05:59:35;;;;;;;6.40;5.77;;;26.20;96.50;;;;;;5062993;28;20487;-22
2021/06/26 06:02:12;;;;;;;5.07;4.70;;;26.10;96.30;;;;;;5063749;28;20455;-25
2021/06/26 06:04:43;;;;;;;5.70;5.30;;;26.00;98.20;;;;;;5051724;28;20785;-25
2021/06/26 06:07:14;;;;;;;6.20;5.57;;;25.90;98.90;;;;;;5060994;28;20478;-23
2021/06/26 06:09:45;;;;;;;5.60;5.20;;;25.90;98.90;;;;;;5061995;28;20457;-23
2021/06/26 06:12:17;;;;;;;6.50;6.00;;;25.80;99.60;;;;;;5062671;28;20480;-28
2021/06/26 06:14:48;;;;;;;6.13;5.60;;;25.70;99.90;;;;;;5061934;28;20452;-25
2021/06/26 06:17:19;;;;;;;5.43;5.03;;;25.60;99.90;;;;;;5061781;28;20464;-23
2021/06/26 06:19:50;;;;;;;5.53;5.23;;;25.60;99.90;;;;;;5062383;28;20452;-23
2021/06/26 06:22:21;;;;;;;5.70;5.20;;;25.60;99.90;;;;;;5062867;28;20475;-24
2021/06/26 06:24:52;;;;;;;5.23;4.83;;;25.50;99.90;;;;;;5053705;28;20446;-24
2021/06/26 06:27:25;;;;;;;6.17;4.80;;;25.50;99.90;;;;;;5060108;28;20498;-24
2021/06/26 06:29:56;;;;;;;4.50;4.27;;;25.50;99.90;;;;;;5062399;28;20452;-23
2021/06/26 06:32:27;;;;;;;5.27;4.97;;;25.50;99.90;;;;;;5062351;28;20589;-24
2021/06/26 06:34:58;;;;;;;4.97;4.67;;;25.40;99.90;;;;;;5062832;28;20436;-23
2021/06/26 06:37:30;;;;;;;5.30;4.90;;;25.30;99.90;;;;;;5062193;28;20536;-22
2021/06/26 06:40:01;;;;;;;5.77;5.37;;;25.30;99.90;;;;;;5061720;28;20448;-26
2021/06/26 06:42:34;;;;;;;5.00;4.60;;;25.20;99.90;;;;;;5062482;28;20444;-24
2021/06/26 06:45:06;;;;;;;5.43;5.03;;;25.20;99.90;;;;;;5061822;28;20567;-22
2021/06/26 06:47:38;;;;;;;5.13;4.80;;;25.10;99.90;;;;;;5069995;28;20434;-24
2021/06/26 06:50:11;;;;;;;5.07;4.77;;;25.00;99.90;;;;;;5062377;28;20499;-25
2021/06/26 06:52:42;;;;;;;5.47;4.97;;;25.00;99.90;;;;;;5062363;28;20586;-26
2021/06/26 06:55:13;;;;;;;5.23;4.93;;;24.90;99.90;;;;;;5061102;28;20484;-25
2021/06/26 06:57:46;;;;;;;4.60;4.30;;;24.80;99.90;;;;;;5066160;28;20459;-25
2021/06/26 07:00:18;;;;;;;5.73;4.40;;;24.70;99.90;;;;;;5068926;28;20480;-25
2021/06/26 07:02:48;;;;;;;4.40;4.10;;;24.70;99.90;;;;;;5063652;28;20447;-25
2021/06/26 07:05:19;;;;;;;4.80;4.50;;;24.70;99.90;;;;;;5068609;28;20484;-23
2021/06/26 07:07:50;;;;;;;5.77;4.97;;;24.60;99.90;;;;;;5063919;28;20567;-24
2021/06/26 07:10:21;;;;;;;5.27;4.83;;;24.60;99.90;;;;;;5068149;28;20494;-22
2021/06/26 07:12:54;;;;;;;4.73;4.43;;;24.60;99.90;;;;;;5069019;28;20614;-23
2021/06/26 07:15:25;;;;;;;5.10;4.80;;;24.60;99.90;;;;;;5067937;28;20876;-28
2021/06/26 07:17:56;;;;;;;5.43;4.93;;;24.60;99.90;;;;;;5069208;28;20424;-24
2021/06/26 07:20:27;;;;;;;5.73;5.23;;;24.50;99.90;;;;;;5068822;28;20528;-23
2021/06/26 07:22:58;;;;;;;4.90;4.60;;;24.60;99.90;;;;;;5069462;28;20440;-25
2021/06/26 07:25:29;;;;;;;5.07;4.77;;;24.70;99.90;;;;;;5067643;28;20490;-25
2021/06/26 07:28:02;;;;;;;5.33;4.93;;;24.80;99.90;;;;;;5069076;28;20498;-26
2021/06/26 07:30:34;;;;;;;5.60;5.20;;;24.80;99.90;;;;;;5056406;28;20447;-22
2021/06/26 07:33:05;;;;;;;5.60;5.20;;;24.80;99.90;;;;;;5068434;28;20484;-23
2021/06/26 07:35:37;;;;;;;5.77;5.30;;;24.80;99.90;;;;;;5068939;28;20474;-26
2021/06/26 07:38:08;;;;;;;5.17;4.87;;;24.60;99.90;;;;;;5068771;28;20495;-25
2021/06/26 07:40:39;;;;;;;6.37;4.80;;;24.50;99.90;;;;;;5067679;28;20474;-24
2021/06/26 07:43:12;;;;;;;5.30;5.00;;;24.40;99.90;;;;;;5068853;28;20520;-24
2021/06/26 07:45:43;;;;;;;5.23;4.93;;;24.30;99.90;;;;;;5068094;28;20480;-23
2021/06/26 07:48:14;;;;;;;4.83;4.53;;;24.20;99.90;;;;;;5068838;28;20440;-27
2021/06/26 07:50:50;;;;;;;5.13;4.83;;;24.10;99.90;;;;;;5067160;28;20436;-23
2021/06/26 07:53:21;;;;;;;5.13;4.70;;;24.10;99.90;;;;;;5068977;28;20593;-25
2021/06/26 07:55:53;;;;;;;4.80;4.40;;;24.10;99.90;;;;;;5067145;28;20809;-25
2021/06/26 07:58:29;;;;;;;5.10;4.80;;;24.10;99.90;;;;;;5068832;28;20451;-26
2021/06/26 08:01:01;;;;;;;5.90;5.50;;;24.00;99.90;;;;;;5067697;28;20594;-25
2021/06/26 08:03:32;;;;;;;5.20;4.90;;;24.00;99.90;;;;;;5064740;28;20464;-25
2021/06/26 08:06:03;;;;;;;5.33;4.93;;;23.90;99.90;;;;;;5068146;28;20820;-23
2021/06/26 08:08:33;;;;;;;5.37;4.97;;;23.80;99.90;;;;;;5066317;28;20480;-22
2021/06/26 08:11:05;;;;;;;5.07;4.70;;;23.80;99.90;;;;;;5064095;28;20433;-26
2021/06/26 08:13:37;;;;;;;5.77;5.37;;;23.70;99.90;;;;;;5064422;28;20560;-24
2021/06/26 08:16:08;;;;;;;5.80;5.30;;;23.70;99.90;;;;;;5064784;28;20506;-23
2021/06/26 08:18:39;;;;;;;5.47;5.10;;;23.60;99.90;;;;;;5046286;28;20441;-24
2021/06/26 08:21:10;;;;;;;5.87;5.47;;;23.70;99.90;;;;;;5065042;28;20845;-24
2021/06/26 08:23:41;;;;;;;5.30;4.80;;;23.60;99.90;;;;;;5065376;28;20444;-27
2021/06/26 08:26:12;;;;;;;5.87;5.37;;;23.60;99.90;;;;;;5060717;28;20505;-23
2021/06/26 08:28:45;;;;;;;5.73;5.43;;;23.50;99.90;;;;;;5064971;28;20444;-24
2021/06/26 08:31:16;;;;;;;5.50;5.13;;;23.50;99.90;;;;;;5047567;28;20946;-23
2021/06/26 08:33:47;;;;;;;5.53;5.13;;;23.40;99.90;;;;;;5064398;28;20488;-25
2021/06/26 08:36:18;;;;;;;4.90;4.50;;;23.40;99.90;;;;;;5064996;28;20451;-23
2021/06/26 08:38:49;;;;;;;5.27;4.97;;;23.40;99.90;;;;;;5065255;28;20446;-24
2021/06/26 08:41:20;;;;;;;5.60;5.30;;;23.30;99.90;;;;;;5064106;28;20459;-25
2021/06/26 08:43:53;;;;;;;5.43;5.03;;;23.30;99.90;;;;;;5064447;28;20506;-24
2021/06/26 08:46:25;;;;;;;5.63;5.27;;;23.20;99.90;;;;;;5074116;28;20937;-23
2021/06/26 08:48:56;;;;;;;5.87;5.47;;;23.20;99.90;;;;;;5066575;28;20511;-24
2021/06/26 08:51:27;;;;;;;5.00;4.70;;;23.20;99.90;;;;;;5064992;28;20419;-27
2021/06/26 08:53:58;;;;;;;6.13;5.73;;;23.20;99.90;;;;;;5064060;28;20512;-24
2021/06/26 08:56:29;;;;;;;5.70;5.40;;;23.10;99.90;;;;;;5064068;28;20448;-27
2021/06/26 08:59:02;;;;;;;5.33;4.93;;;23.10;99.90;;;;;;5064209;28;20444;-27
2021/06/26 09:01:35;;;;;;;6.00;5.50;;;23.10;99.90;;;;;;5063532;28;20853;-26
2021/06/26 09:04:07;;;;;;;6.07;5.63;;;23.10;99.90;;;;;;5064245;28;20420;-23
2021/06/26 09:06:49;;;;;;;5.60;5.20;;;23.10;99.90;;;;;;5064353;28;20492;-24
2021/06/26 09:09:31;;;;;;;6.10;5.60;;;23.10;99.90;;;;;;5059842;28;20419;-24
2021/06/26 09:12:04;;;;;;;6.03;5.43;;;23.10;99.90;;;;;;5053388;28;20459;-25
2021/06/26 09:14:38;;;;;;;5.00;4.70;;;23.00;99.90;;;;;;5051505;28;20489;-22
2021/06/26 09:17:10;;;;;;;5.50;5.20;;;23.00;99.90;;;;;;5060957;28;20476;-22
2021/06/26 09:19:40;;;;;;;6.13;5.70;;;22.90;99.90;;;;;;5063032;28;20561;-25
2021/06/26 09:22:12;;;;;;;5.97;5.47;;;22.90;99.90;;;;;;5064206;28;20476;-23
2021/06/26 09:24:45;;;;;;;6.50;5.97;;;22.90;99.90;;;;;;5062685;28;20498;-24
2021/06/26 09:27:18;;;;;;;6.03;5.53;;;22.80;99.90;;;;;;5063870;28;20510;-24
2021/06/26 09:29:52;;;;;;;5.17;4.83;;;22.80;99.90;;;;;;5063570;28;20457;-27
2021/06/26 09:32:27;;;;;;;5.43;5.03;;;22.80;99.90;;;;;;5063748;28;20448;-27
2021/06/26 09:34:59;;;;;;;6.47;6.07;;;22.70;99.90;;;;;;5062752;28;20604;-23
2021/06/26 09:37:35;;;;;;;5.70;5.30;;;22.70;99.90;;;;;;5064166;28;20445;-23
2021/06/26 09:40:07;;;;;;;5.33;4.93;;;22.70;99.90;;;;;;5056396;28;20468;-23
2021/06/26 09:42:39;;;;;;;5.70;5.37;;;22.60;99.90;;;;;;5063673;28;20970;-24
2021/06/26 09:45:14;;;;;;;5.97;5.57;;;22.60;99.90;;;;;;5063342;28;20449;-22
2021/06/26 09:47:46;;;;;;;6.10;5.70;;;22.60;99.90;;;;;;5052402;28;20442;-24
2021/06/26 09:50:19;;;;;;;5.80;5.40;;;22.50;99.90;;;;;;5062921;28;20447;-22
2021/06/26 09:52:51;;;;;;;5.10;4.80;;;22.50;99.90;;;;;;5063748;28;20504;-24
2021/06/26 09:55:25;;;;;;;5.63;5.23;;;22.50;99.90;;;;;;5062882;28;20552;-24
2021/06/26 09:57:58;;;;;;;5.40;5.03;;;22.50;99.90;;;;;;5063084;28;20423;-23
2021/06/26 10:00:32;;;;;;;6.30;4.97;;;22.50;99.90;;;;;;5062811;28;20480;-25
2021/06/26 10:03:03;;;;;;;5.30;5.00;;;22.40;99.90;;;;;;5062958;28;20445;-25
2021/06/26 10:05:34;;;;;;;5.80;5.50;;;22.40;99.90;;;;;;5063331;28;20456;-25
2021/06/26 10:08:07;;;;;;;6.43;6.03;;;22.40;99.90;;;;;;5063367;28;20456;-25
2021/06/26 10:10:38;;;;;;;5.53;5.10;;;22.30;99.90;;;;;;5062137;28;20479;-22
2021/06/26 10:13:14;;;;;;;5.80;5.50;;;22.40;99.90;;;;;;5061799;28;20463;-27
2021/06/26 10:15:48;;;;;;;6.57;6.17;;;22.30;99.90;;;;;;5062762;28;20461;-23
2021/06/26 10:18:20;;;;;;;6.27;5.50;;;22.40;99.90;;;;;;5063190;28;20430;-25
2021/06/26 10:20:51;;;;;;;5.70;5.40;;;22.30;99.90;;;;;;5062665;28;20423;-22
2021/06/26 10:23:22;;;;;;;5.47;5.17;;;22.20;99.90;;;;;;5063308;28;20467;-27
2021/06/26 10:25:53;;;;;;;5.97;5.47;;;22.10;99.90;;;;;;5062179;28;20472;-24
2021/06/26 10:28:24;;;;;;;5.67;5.20;;;22.20;99.90;;;;;;5062647;28;21308;-25
2021/06/26 10:31:06;;;;;;;5.30;5.00;;;22.10;99.90;;;;;;5062511;28;20453;-23
2021/06/26 10:33:37;;;;;;;5.83;5.40;;;22.10;99.90;;;;;;5060171;28;20990;-23
2021/06/26 10:36:09;;;;;;;6.10;5.70;;;22.10;99.90;;;;;;5058713;28;20484;-22
2021/06/26 10:38:44;;;;;;;6.30;5.90;;;22.00;99.90;;;;;;5062970;28;20463;-24
2021/06/26 10:41:20;;;;;;;6.50;6.00;;;22.00;99.90;;;;;;5061856;28;20917;-23
2021/06/26 10:43:59;;;;;;;7.13;6.60;;;22.00;99.90;;;;;;5062948;28;20459;-25
2021/06/26 10:46:32;;;;;;;6.60;5.20;;;21.90;99.90;;;;;;5073350;28;20446;-26
2021/06/26 10:49:06;;;;;;;6.50;6.10;;;21.90;99.90;;;;;;5067429;28;20563;-25
2021/06/26 10:51:39;;;;;;;6.07;5.63;;;21.90;99.90;;;;;;5062349;28;20439;-23
2021/06/26 10:54:15;;;;;;;6.30;5.90;;;21.80;99.90;;;;;;5061385;28;20571;-28
2021/06/26 10:56:48;;;;;;;5.77;5.37;;;21.80;99.90;;;;;;5062838;28;20488;-24
2021/06/26 10:59:20;;;;;;;5.60;5.30;;;21.80;99.90;;;;;;5062947;28;20933;-22
2021/06/26 11:01:58;;;;;;;6.47;6.00;;;21.80;99.90;;;;;;5059903;28;20473;-27
2021/06/26 11:04:30;;;;;;;5.90;5.50;;;21.80;99.90;;;;;;5061924;28;20559;-22
2021/06/26 11:07:09;;;;;;;5.73;5.40;;;21.80;99.90;;;;;;5061113;28;20457;-26
2021/06/26 11:09:41;;;;;;;6.43;5.93;;;21.70;99.90;;;;;;5059682;28;20452;-23
2021/06/26 11:12:14;;;;;;;6.63;6.13;;;21.70;99.90;;;;;;5059033;28;20448;-23
2021/06/26 11:14:51;;;;;;;6.37;5.97;;;21.70;99.90;;;;;;5062540;28;20476;-24
2021/06/26 11:17:25;;;;;;;6.30;5.90;;;21.70;99.90;;;;;;5062483;28;20489;-26
2021/06/26 11:19:56;;;;;;;6.27;5.77;;;21.60;99.90;;;;;;5061981;28;20518;-26
2021/06/26 11:22:27;;;;;;;6.00;5.60;;;21.70;99.90;;;;;;5062544;28;20832;-22
2021/06/26 11:25:03;;;;;;;7.00;6.50;;;21.60;99.90;;;;;;5057119;28;20423;-27
2021/06/26 11:27:34;;;;;;;6.20;5.80;;;21.60;99.90;;;;;;5062308;28;20435;-23
2021/06/26 11:30:10;;;;;;;5.80;5.40;;;21.50;99.90;;;;;;5062403;28;20407;-23
2021/06/26 11:32:42;;;;;;;6.40;6.00;;;21.40;99.90;;;;;;5061654;28;20448;-27
2021/06/26 11:35:15;;;;;;;6.60;6.20;;;21.40;99.90;;;;;;5062124;28;20495;-22
2021/06/26 11:37:47;;;;;;;7.00;6.60;;;21.40;99.90;;;;;;5062085;28;20443;-22
2021/06/26 11:40:20;;;;;;;6.63;6.20;;;21.40;99.90;;;;;;5060563;28;20472;-25
2021/06/26 11:42:56;;;;;;;6.03;5.60;;;21.40;99.90;;;;;;5062645;28;20451;-24
2021/06/26 11:45:30;;;;;;;6.77;6.27;;;21.50;99.90;;;;;;5067462;28;20418;-24
2021/06/26 11:48:10;;;;;;;7.27;6.77;;;21.40;99.90;;;;;;5067314;28;20797;-22
2021/06/26 11:50:48;;;;;;;8.73;6.70;;;21.40;99.90;;;;;;5065100;28;20936;-23
2021/06/26 11:53:21;;;;;;;6.90;6.50;;;21.40;99.90;;;;;;5065959;28;20498;-23
2021/06/26 11:55:58;;;;;;;7.17;6.67;;;21.30;99.90;;;;;;5063729;28;20462;-23
2021/06/26 11:58:39;;;;;;;6.40;6.00;;;21.20;99.90;;;;;;5065405;28;20918;-22
2021/06/26 12:01:11;;;;;;;6.80;6.30;;;21.30;99.90;;;;;;5064904;28;20426;-22
2021/06/26 12:03:45;;;;;;;6.50;6.10;;;21.30;99.90;;;;;;5066007;28;20453;-24
2021/06/26 12:06:17;;;;;;;6.60;6.10;;;21.20;99.90;;;;;;5065253;28;20464;-23
2021/06/26 12:08:51;;;;;;;6.60;6.10;;;21.10;99.90;;;;;;5052340;28;20452;-22
2021/06/26 12:11:24;;;;;;;6.70;6.30;;;21.10;99.90;;;;;;5061640;28;20488;-23
2021/06/26 12:13:56;;;;;;;6.70;6.20;;;21.10;99.90;;;;;;5062169;28;20455;-21
2021/06/26 12:16:28;;;;;;;7.03;6.63;;;21.10;99.90;;;;;;5064479;28;20525;-24
2021/06/26 12:19:01;;;;;;;6.53;6.13;;;21.10;99.90;;;;;;5064462;28;20515;-23
2021/06/26 12:21:43;;;;;;;6.80;6.30;;;21.10;99.90;;;;;;5065963;28;20444;-24
2021/06/26 12:24:25;;;;;;;7.10;6.70;;;21.00;99.90;;;;;;5064188;28;20485;-23
2021/06/26 12:27:07;;;;;;;7.63;6.90;;;21.00;99.90;;;;;;5065191;28;20471;-22
2021/06/26 12:29:39;;;;;;;7.00;6.50;;;21.10;99.90;;;;;;5064732;28;20451;-23
2021/06/26 12:32:10;;;;;;;7.53;7.07;;;21.10;99.90;;;;;;5064371;28;20488;-24
2021/06/26 12:34:49;;;;;;;8.10;7.50;;;21.10;99.90;;;;;;5049397;28;20557;-23
2021/06/26 12:37:30;;;;;;;7.03;6.63;;;21.10;99.90;;;;;;5054615;28;20450;-23
2021/06/26 12:40:11;;;;;;;7.40;7.00;;;21.00;99.90;;;;;;5063588;28;20472;-25
2021/06/26 12:42:55;;;;;;;7.50;7.00;;;20.90;99.90;;;;;;5061801;28;20419;-26
2021/06/26 12:45:32;;;;;;;6.83;6.33;;;21.00;99.90;;;;;;5064395;28;20933;-22
2021/06/26 12:48:11;;;;;;;7.13;6.63;;;21.00;99.90;;;;;;5064161;28;20464;-24
2021/06/26 12:51:01;;;;;;;7.23;6.73;;;21.00;99.90;;;;;;5063751;28;20482;-23
2021/06/26 12:53:40;;;;;;;7.13;6.63;;;21.00;99.90;;;;;;5064437;28;20480;-25
2021/06/26 12:56:14;;;;;;;7.03;6.60;;;21.00;99.90;;;;;;5062597;28;20522;-23
2021/06/26 12:58:56;;;;;;;7.10;6.40;;;21.00;99.90;;;;;;5063657;28;20439;-22
2021/06/26 13:01:37;;;;;;;7.70;7.00;;;21.10;99.90;;;;;;5064794;28;20776;-22
2021/06/26 13:04:09;;;;;;;7.63;7.20;;;21.10;99.90;;;;;;5064103;28;20423;-23
2021/06/26 13:06:50;;;;;;;8.23;7.63;;;21.10;99.90;;;;;;5064251;28;20419;-21
2021/06/26 13:09:33;;;;;;;8.30;7.60;;;21.20;99.90;;;;;;5055399;28;20526;-22
2021/06/26 13:12:13;;;;;;;8.47;7.80;;;21.20;99.90;;;;;;5061382;28;20521;-22